createdAt,value
2018-07-14T15:33:59.056Z,57.00
2018-07-14T15:36:27.930Z,55.90
2018-07-14T15:38:56.708Z,53.50
2018-07-14T15:41:25.638Z,53.50
2018-07-14T15:43:54.410Z,52.80
2018-07-14T15:46:23.187Z,52.50
2018-07-14T15:48:52.074Z,51.30
2018-07-14T15:51:20.833Z,50.60
2018-07-14T15:53:49.643Z,50.10
2018-07-14T15:56:18.402Z,51.60
2018-07-14T15:58:47.206Z,52.30
2018-07-14T16:01:16.021Z,52.40
2018-07-14T16:03:44.846Z,52.40
2018-07-14T16:06:13.750Z,51.60
2018-07-14T16:08:42.523Z,51.20
2018-07-14T16:11:11.362Z,51.90
2018-07-14T16:13:40.184Z,51.00
2018-07-14T16:16:08.993Z,50.30
2018-07-14T16:18:37.854Z,50.90
2018-07-14T16:21:06.738Z,51.30
2018-07-14T16:23:35.515Z,52.80
2018-07-14T16:28:32.965Z,52.20
2018-07-14T16:31:02.442Z,52.70
2018-07-14T16:33:31.230Z,54.00
2018-07-14T16:36:00.112Z,53.40
2018-07-14T16:38:28.891Z,53.10
2018-07-14T16:40:57.674Z,51.70
2018-07-14T16:43:26.449Z,53.20
2018-07-14T16:55:49.388Z,54.40
2018-07-14T16:58:18.165Z,53.10
2018-07-14T17:00:47.011Z,53.60
2018-07-14T17:03:15.749Z,54.20
2018-07-14T17:05:44.631Z,54.90
2018-07-14T17:08:13.412Z,54.60
2018-07-14T17:10:42.250Z,53.80
2018-07-14T17:13:10.999Z,54.80
2018-07-14T17:18:08.692Z,54.70
2018-07-14T17:20:37.545Z,54.90
2018-07-14T17:23:06.267Z,52.80
2018-07-14T17:25:35.057Z,51.40
2018-07-14T17:28:03.830Z,51.20
2018-07-14T17:33:01.064Z,51.90
2018-07-14T17:35:30.122Z,52.60
2018-07-14T17:37:58.831Z,52.20
2018-07-14T17:40:27.639Z,53.00
2018-07-14T17:42:56.397Z,53.30
2018-07-14T17:45:25.269Z,54.60
2018-07-14T17:47:54.047Z,54.40
2018-07-14T17:50:23.058Z,53.70
2018-07-14T17:52:51.950Z,54.40
2018-07-14T17:55:20.938Z,55.20
2018-07-14T17:57:49.697Z,56.40
2018-07-14T18:00:18.560Z,56.40
2018-07-14T18:02:47.358Z,56.00
2018-07-14T18:05:16.221Z,56.10
2018-07-14T18:07:45.107Z,56.60
2018-07-14T18:10:14.348Z,57.10
2018-07-14T18:12:43.188Z,57.60
2018-07-14T18:15:12.109Z,55.80
2018-07-14T18:17:40.878Z,56.00
2018-07-14T18:20:09.805Z,56.90
2018-07-14T18:22:38.564Z,57.80
2018-07-14T18:25:07.345Z,58.60
2018-07-14T18:27:36.227Z,58.40
2018-07-14T18:30:05.116Z,58.30
2018-07-14T18:32:34.090Z,57.70
2018-07-14T18:35:02.997Z,57.90
2018-07-14T18:37:32.348Z,59.10
2018-07-14T18:40:01.148Z,59.80
2018-07-14T18:42:29.925Z,61.40
2018-07-14T18:44:58.667Z,61.70
2018-07-14T18:47:27.460Z,63.20
2018-07-14T18:49:56.240Z,64.30
2018-07-14T18:52:25.155Z,65.50
2018-07-14T18:54:53.884Z,67.30
2018-07-14T18:57:22.787Z,69.00
2018-07-14T18:59:51.591Z,70.20
2018-07-14T19:02:20.579Z,71.70
2018-07-14T19:04:49.751Z,73.60
2018-07-14T19:07:18.841Z,75.30
2018-07-14T19:09:47.759Z,78.10
2018-07-14T19:12:16.547Z,80.90
2018-07-14T19:17:13.927Z,86.20
2018-07-14T19:19:42.691Z,90.10
2018-07-14T19:22:11.651Z,91.70
2018-07-14T19:24:40.410Z,93.90
2018-07-14T19:27:09.270Z,96.60
2018-07-14T19:29:38.087Z,99.40
2018-07-14T19:32:07.106Z,99.90
2018-07-14T19:34:36.118Z,99.90
2018-07-14T19:37:05.086Z,99.90
2018-07-14T19:39:33.846Z,99.90
2018-07-14T19:42:02.821Z,99.90
2018-07-14T19:44:31.573Z,99.90
2018-07-14T19:47:00.351Z,99.90
2018-07-14T19:49:29.293Z,99.90
2018-07-14T19:51:58.235Z,99.90
2018-07-14T19:54:26.991Z,99.90
2018-07-14T19:56:55.807Z,99.90
2018-07-14T19:59:24.595Z,99.90
2018-07-14T20:01:53.368Z,99.90
2018-07-14T20:04:22.224Z,99.90
2018-07-14T20:06:51.039Z,99.90
2018-07-14T20:09:19.822Z,99.90
2018-07-14T20:11:48.637Z,99.90
